MMMD/MID METAR and TAF weather

Enter ICAO airport designator
Station Type Date Time Source
MMMD METAR 2021/04/18 02:48 UTC NOAA

MMMD 180248Z 05004KT 7SM FEW030 SCT300 30/22 A2978 RMK SLP075 52016 953 8/508


Station Type Date Time Source
MMMD Decoded METAR 2021/04/18 02:48 UTC NOAA

Merida / lic Manuel Crecencio, Mexico (MMMD) 20-56N 089-39W 11M
Apr 17, 2021 - 10:48 PM EDT / 2021.04.18 0248 UTC
Wind: from the NE (050 degrees) at 5 MPH (4 KT):0
Visibility: 7 mile(s):0
Sky conditions: partly cloudy
Temperature: 86 F (30 C)
Heat index: 91.8 F (33.2 C):1
Dew Point: 71 F (22 C)
Relative Humidity: 62%
Pressure (altimeter): 29.78 in. Hg (1008 hPa)
Pressure tendency: 0.05 inches (1.6 hPa) higher than three hours ago
ob: MMMD 180248Z 05004KT 7SM FEW030 SCT300 30/22 A2978 RMK SLP075 52016 953 8/508
cycle: 3

Station Type Date Time Source
MMMD TAF 2021/04/18 06:08 UTC NOAA

TAF MMMD 180301Z 1806/1912 06005KT P6SM SCT020 TX39/1821Z TN24/1812Z
FM181800 13010KT P6SM BKN020
TEMPO 1900/1904 2SM TSRA BKN015CB

Example: see airport list